sensor_id;sensor_type;location;lat;lon;timestamp;P1;durP1;ratioP1;P2;durP2;ratioP2
10851;SDS011;5479;52.046;6.314;2023-08-30T00:00:04;12.63;;;11.17;;
10851;SDS011;5479;52.046;6.314;2023-08-30T00:02:33;12.90;;;11.60;;
10851;SDS011;5479;52.046;6.314;2023-08-30T00:05:03;14.53;;;12.13;;
10851;SDS011;5479;52.046;6.314;2023-08-30T00:07:33;12.23;;;10.93;;
10851;SDS011;5479;52.046;6.314;2023-08-30T00:10:01;12.67;;;11.27;;
10851;SDS011;5479;52.046;6.314;2023-08-30T00:12:29;12.47;;;11.17;;
10851;SDS011;5479;52.046;6.314;2023-08-30T00:14:58;12.23;;;10.93;;
10851;SDS011;5479;52.046;6.314;2023-08-30T00:17:25;13.23;;;11.87;;
10851;SDS011;5479;52.046;6.314;2023-08-30T00:19:53;12.87;;;11.57;;
10851;SDS011;5479;52.046;6.314;2023-08-30T00:22:22;13.53;;;12.13;;
10851;SDS011;5479;52.046;6.314;2023-08-30T00:24:51;12.90;;;11.60;;
10851;SDS011;5479;52.046;6.314;2023-08-30T00:27:19;12.97;;;11.67;;
10851;SDS011;5479;52.046;6.314;2023-08-30T00:29:47;13.37;;;11.97;;
10851;SDS011;5479;52.046;6.314;2023-08-30T00:32:15;12.93;;;11.50;;
10851;SDS011;5479;52.046;6.314;2023-08-30T00:34:43;13.33;;;11.77;;
10851;SDS011;5479;52.046;6.314;2023-08-30T00:37:11;12.63;;;11.43;;
10851;SDS011;5479;52.046;6.314;2023-08-30T00:39:39;13.30;;;11.90;;
10851;SDS011;5479;52.046;6.314;2023-08-30T00:42:08;13.73;;;11.73;;
10851;SDS011;5479;52.046;6.314;2023-08-30T00:44:36;13.23;;;11.83;;
10851;SDS011;5479;52.046;6.314;2023-08-30T00:47:04;13.57;;;12.17;;
10851;SDS011;5479;52.046;6.314;2023-08-30T00:49:32;14.70;;;13.10;;
10851;SDS011;5479;52.046;6.314;2023-08-30T00:52:01;16.43;;;13.40;;
10851;SDS011;5479;52.046;6.314;2023-08-30T00:54:31;14.47;;;12.97;;
10851;SDS011;5479;52.046;6.314;2023-08-30T00:57:00;13.77;;;12.33;;
10851;SDS011;5479;52.046;6.314;2023-08-30T00:59:30;17.83;;;13.67;;
10851;SDS011;5479;52.046;6.314;2023-08-30T01:02:00;15.83;;;13.53;;
10851;SDS011;5479;52.046;6.314;2023-08-30T01:04:28;14.53;;;13.03;;
10851;SDS011;5479;52.046;6.314;2023-08-30T01:06:56;16.60;;;13.27;;
10851;SDS011;5479;52.046;6.314;2023-08-30T01:09:24;16.20;;;14.50;;
10851;SDS011;5479;52.046;6.314;2023-08-30T01:11:54;15.90;;;14.20;;
10851;SDS011;5479;52.046;6.314;2023-08-30T01:14:31;14.30;;;12.87;;
10851;SDS011;5479;52.046;6.314;2023-08-30T01:17:04;14.87;;;13.27;;
10851;SDS011;5479;52.046;6.314;2023-08-30T01:19:38;14.77;;;13.27;;
10851;SDS011;5479;52.046;6.314;2023-08-30T01:22:15;14.57;;;12.70;;
10851;SDS011;5479;52.046;6.314;2023-08-30T01:24:49;15.40;;;12.60;;
10851;SDS011;5479;52.046;6.314;2023-08-30T01:27:30;13.83;;;12.43;;
10851;SDS011;5479;52.046;6.314;2023-08-30T01:30:01;14.50;;;12.90;;
10851;SDS011;5479;52.046;6.314;2023-08-30T01:32:30;14.23;;;12.73;;
10851;SDS011;5479;52.046;6.314;2023-08-30T01:35:01;14.50;;;13.00;;
10851;SDS011;5479;52.046;6.314;2023-08-30T01:37:29;13.73;;;12.10;;
10851;SDS011;5479;52.046;6.314;2023-08-30T01:39:59;12.97;;;11.67;;
10851;SDS011;5479;52.046;6.314;2023-08-30T01:42:31;14.00;;;11.53;;
10851;SDS011;5479;52.046;6.314;2023-08-30T01:45:00;12.67;;;11.37;;
10851;SDS011;5479;52.046;6.314;2023-08-30T01:47:30;13.20;;;11.70;;
10851;SDS011;5479;52.046;6.314;2023-08-30T01:50:00;12.63;;;11.17;;
10851;SDS011;5479;52.046;6.314;2023-08-30T01:52:30;12.00;;;10.70;;
10851;SDS011;5479;52.046;6.314;2023-08-30T01:54:59;12.97;;;10.43;;
10851;SDS011;5479;52.046;6.314;2023-08-30T01:57:29;11.93;;;9.93;;
10851;SDS011;5479;52.046;6.314;2023-08-30T01:59:58;11.73;;;10.53;;
10851;SDS011;5479;52.046;6.314;2023-08-30T02:02:28;12.33;;;10.30;;
10851;SDS011;5479;52.046;6.314;2023-08-30T02:04:56;11.53;;;10.33;;
10851;SDS011;5479;52.046;6.314;2023-08-30T02:07:25;13.20;;;10.60;;
10851;SDS011;5479;52.046;6.314;2023-08-30T02:09:58;11.97;;;10.50;;
10851;SDS011;5479;52.046;6.314;2023-08-30T02:12:31;12.53;;;9.90;;
10851;SDS011;5479;52.046;6.314;2023-08-30T02:15:06;13.80;;;10.10;;
10851;SDS011;5479;52.046;6.314;2023-08-30T02:17:35;11.63;;;9.47;;
10851;SDS011;5479;52.046;6.314;2023-08-30T02:20:05;12.97;;;10.10;;
10851;SDS011;5479;52.046;6.314;2023-08-30T02:22:34;12.63;;;10.27;;
10851;SDS011;5479;52.046;6.314;2023-08-30T02:25:02;11.93;;;10.60;;
10851;SDS011;5479;52.046;6.314;2023-08-30T02:27:31;13.50;;;11.13;;
10851;SDS011;5479;52.046;6.314;2023-08-30T02:29:59;11.77;;;10.27;;
10851;SDS011;5479;52.046;6.314;2023-08-30T02:32:30;13.17;;;11.10;;
10851;SDS011;5479;52.046;6.314;2023-08-30T02:34:58;14.77;;;10.93;;
10851;SDS011;5479;52.046;6.314;2023-08-30T02:37:26;13.83;;;11.00;;
10851;SDS011;5479;52.046;6.314;2023-08-30T02:39:54;12.13;;;10.37;;
10851;SDS011;5479;52.046;6.314;2023-08-30T02:42:21;13.33;;;11.13;;
10851;SDS011;5479;52.046;6.314;2023-08-30T02:44:52;12.17;;;10.53;;
10851;SDS011;5479;52.046;6.314;2023-08-30T02:47:20;12.53;;;11.03;;
10851;SDS011;5479;52.046;6.314;2023-08-30T02:49:49;14.63;;;11.20;;
10851;SDS011;5479;52.046;6.314;2023-08-30T02:52:17;13.40;;;10.80;;
10851;SDS011;5479;52.046;6.314;2023-08-30T02:54:45;16.37;;;11.60;;
10851;SDS011;5479;52.046;6.314;2023-08-30T02:57:13;12.80;;;11.30;;
10851;SDS011;5479;52.046;6.314;2023-08-30T02:59:41;14.57;;;11.33;;
10851;SDS011;5479;52.046;6.314;2023-08-30T03:02:08;12.47;;;10.73;;
10851;SDS011;5479;52.046;6.314;2023-08-30T03:04:35;12.77;;;10.57;;
10851;SDS011;5479;52.046;6.314;2023-08-30T03:07:06;11.77;;;10.07;;
10851;SDS011;5479;52.046;6.314;2023-08-30T03:09:34;12.37;;;10.50;;
10851;SDS011;5479;52.046;6.314;2023-08-30T03:12:02;11.13;;;9.93;;
10851;SDS011;5479;52.046;6.314;2023-08-30T03:14:30;10.90;;;9.80;;
10851;SDS011;5479;52.046;6.314;2023-08-30T03:16:58;12.93;;;10.17;;
10851;SDS011;5479;52.046;6.314;2023-08-30T03:19:26;11.37;;;10.17;;
10851;SDS011;5479;52.046;6.314;2023-08-30T03:21:54;11.17;;;9.80;;
10851;SDS011;5479;52.046;6.314;2023-08-30T03:24:23;11.20;;;10.00;;
10851;SDS011;5479;52.046;6.314;2023-08-30T03:26:51;13.17;;;11.00;;
10851;SDS011;5479;52.046;6.314;2023-08-30T03:29:19;14.43;;;11.10;;
10851;SDS011;5479;52.046;6.314;2023-08-30T03:31:47;12.03;;;10.50;;
10851;SDS011;5479;52.046;6.314;2023-08-30T03:34:15;13.70;;;10.50;;
10851;SDS011;5479;52.046;6.314;2023-08-30T03:36:43;12.93;;;11.50;;
10851;SDS011;5479;52.046;6.314;2023-08-30T03:39:11;14.17;;;10.87;;
10851;SDS011;5479;52.046;6.314;2023-08-30T03:41:41;11.77;;;10.57;;
10851;SDS011;5479;52.046;6.314;2023-08-30T03:44:08;12.73;;;10.63;;
10851;SDS011;5479;52.046;6.314;2023-08-30T03:46:37;11.60;;;10.07;;
10851;SDS011;5479;52.046;6.314;2023-08-30T03:49:05;12.37;;;10.80;;
10851;SDS011;5479;52.046;6.314;2023-08-30T03:51:33;14.40;;;11.53;;
10851;SDS011;5479;52.046;6.314;2023-08-30T03:54:01;13.30;;;10.90;;
10851;SDS011;5479;52.046;6.314;2023-08-30T03:56:30;13.83;;;11.80;;
10851;SDS011;5479;52.046;6.314;2023-08-30T03:58:59;14.10;;;12.10;;
10851;SDS011;5479;52.046;6.314;2023-08-30T04:01:27;16.77;;;12.97;;
10851;SDS011;5479;52.046;6.314;2023-08-30T04:03:54;16.03;;;12.63;;
10851;SDS011;5479;52.046;6.314;2023-08-30T04:06:22;15.23;;;12.90;;
10851;SDS011;5479;52.046;6.314;2023-08-30T04:08:50;20.47;;;13.37;;
10851;SDS011;5479;52.046;6.314;2023-08-30T04:11:18;14.37;;;12.77;;
10851;SDS011;5479;52.046;6.314;2023-08-30T04:13:46;14.87;;;13.20;;
10851;SDS011;5479;52.046;6.314;2023-08-30T04:16:15;15.23;;;13.23;;
10851;SDS011;5479;52.046;6.314;2023-08-30T04:18:43;16.37;;;13.50;;
10851;SDS011;5479;52.046;6.314;2023-08-30T04:21:11;16.73;;;14.17;;
10851;SDS011;5479;52.046;6.314;2023-08-30T04:23:39;15.90;;;14.10;;
10851;SDS011;5479;52.046;6.314;2023-08-30T04:26:06;17.33;;;14.30;;
10851;SDS011;5479;52.046;6.314;2023-08-30T04:28:34;15.93;;;14.23;;
10851;SDS011;5479;52.046;6.314;2023-08-30T04:31:02;16.23;;;14.27;;
10851;SDS011;5479;52.046;6.314;2023-08-30T04:33:32;17.73;;;15.10;;
10851;SDS011;5479;52.046;6.314;2023-08-30T04:35:59;18.93;;;14.80;;
10851;SDS011;5479;52.046;6.314;2023-08-30T04:38:30;16.27;;;14.00;;
10851;SDS011;5479;52.046;6.314;2023-08-30T04:40:58;17.63;;;15.10;;
10851;SDS011;5479;52.046;6.314;2023-08-30T04:43:26;16.73;;;14.93;;
10851;SDS011;5479;52.046;6.314;2023-08-30T04:45:54;18.40;;;16.07;;
10851;SDS011;5479;52.046;6.314;2023-08-30T04:48:22;19.53;;;15.93;;
10851;SDS011;5479;52.046;6.314;2023-08-30T04:50:59;16.87;;;15.07;;
10851;SDS011;5479;52.046;6.314;2023-08-30T04:53:30;17.23;;;15.17;;
10851;SDS011;5479;52.046;6.314;2023-08-30T04:55:58;16.60;;;14.80;;
10851;SDS011;5479;52.046;6.314;2023-08-30T04:58:26;16.93;;;15.13;;
10851;SDS011;5479;52.046;6.314;2023-08-30T05:00:55;18.17;;;15.50;;
10851;SDS011;5479;52.046;6.314;2023-08-30T05:03:24;15.67;;;13.97;;
10851;SDS011;5479;52.046;6.314;2023-08-30T05:05:52;15.63;;;14.00;;
10851;SDS011;5479;52.046;6.314;2023-08-30T05:08:21;17.13;;;15.33;;
10851;SDS011;5479;52.046;6.314;2023-08-30T05:10:49;16.47;;;13.90;;
10851;SDS011;5479;52.046;6.314;2023-08-30T05:13:17;18.00;;;15.03;;
10851;SDS011;5479;52.046;6.314;2023-08-30T05:15:45;17.50;;;15.60;;
10851;SDS011;5479;52.046;6.314;2023-08-30T05:18:12;21.93;;;15.07;;
10851;SDS011;5479;52.046;6.314;2023-08-30T05:20:40;16.83;;;15.00;;
10851;SDS011;5479;52.046;6.314;2023-08-30T05:23:09;17.73;;;15.83;;
10851;SDS011;5479;52.046;6.314;2023-08-30T05:25:38;17.77;;;15.20;;
10851;SDS011;5479;52.046;6.314;2023-08-30T05:28:06;17.93;;;15.27;;
10851;SDS011;5479;52.046;6.314;2023-08-30T05:30:33;18.57;;;15.57;;
10851;SDS011;5479;52.046;6.314;2023-08-30T05:33:01;17.60;;;15.63;;
10851;SDS011;5479;52.046;6.314;2023-08-30T05:35:30;17.30;;;15.47;;
10851;SDS011;5479;52.046;6.314;2023-08-30T05:37:58;18.50;;;15.07;;
10851;SDS011;5479;52.046;6.314;2023-08-30T05:40:25;17.50;;;15.40;;
10851;SDS011;5479;52.046;6.314;2023-08-30T05:42:55;17.57;;;15.17;;
10851;SDS011;5479;52.046;6.314;2023-08-30T05:45:23;17.30;;;15.37;;
10851;SDS011;5479;52.046;6.314;2023-08-30T05:47:50;19.17;;;16.03;;
10851;SDS011;5479;52.046;6.314;2023-08-30T05:50:18;17.43;;;15.17;;
10851;SDS011;5479;52.046;6.314;2023-08-30T05:52:46;17.57;;;15.33;;
10851;SDS011;5479;52.046;6.314;2023-08-30T05:55:14;17.00;;;15.10;;
10851;SDS011;5479;52.046;6.314;2023-08-30T05:57:42;16.93;;;14.97;;
10851;SDS011;5479;52.046;6.314;2023-08-30T06:00:12;15.63;;;13.73;;
10851;SDS011;5479;52.046;6.314;2023-08-30T06:02:40;16.93;;;14.13;;
10851;SDS011;5479;52.046;6.314;2023-08-30T06:05:09;16.57;;;14.87;;
10851;SDS011;5479;52.046;6.314;2023-08-30T06:07:37;15.93;;;14.23;;
10851;SDS011;5479;52.046;6.314;2023-08-30T06:10:05;15.00;;;13.40;;
10851;SDS011;5479;52.046;6.314;2023-08-30T06:12:33;15.47;;;13.70;;
10851;SDS011;5479;52.046;6.314;2023-08-30T06:15:01;15.93;;;14.20;;
10851;SDS011;5479;52.046;6.314;2023-08-30T06:17:32;15.63;;;13.97;;
10851;SDS011;5479;52.046;6.314;2023-08-30T06:20:00;16.20;;;14.10;;
10851;SDS011;5479;52.046;6.314;2023-08-30T06:22:29;16.13;;;13.77;;
10851;SDS011;5479;52.046;6.314;2023-08-30T06:24:57;15.50;;;13.77;;
10851;SDS011;5479;52.046;6.314;2023-08-30T06:27:24;15.13;;;13.53;;
10851;SDS011;5479;52.046;6.314;2023-08-30T06:29:53;15.83;;;13.67;;
10851;SDS011;5479;52.046;6.314;2023-08-30T06:32:21;15.40;;;13.90;;
10851;SDS011;5479;52.046;6.314;2023-08-30T06:34:51;15.30;;;13.70;;
10851;SDS011;5479;52.046;6.314;2023-08-30T06:37:19;15.53;;;13.87;;
10851;SDS011;5479;52.046;6.314;2023-08-30T06:39:48;15.77;;;14.07;;
10851;SDS011;5479;52.046;6.314;2023-08-30T06:42:16;14.17;;;12.77;;
10851;SDS011;5479;52.046;6.314;2023-08-30T06:44:44;15.43;;;13.07;;
10851;SDS011;5479;52.046;6.314;2023-08-30T06:47:12;14.17;;;12.77;;
10851;SDS011;5479;52.046;6.314;2023-08-30T06:49:40;14.73;;;12.70;;
10851;SDS011;5479;52.046;6.314;2023-08-30T06:52:09;14.50;;;12.37;;
10851;SDS011;5479;52.046;6.314;2023-08-30T06:54:37;14.10;;;12.60;;
10851;SDS011;5479;52.046;6.314;2023-08-30T06:57:05;15.13;;;12.93;;
10851;SDS011;5479;52.046;6.314;2023-08-30T06:59:33;15.17;;;13.50;;
10851;SDS011;5479;52.046;6.314;2023-08-30T07:02:01;16.30;;;14.10;;
10851;SDS011;5479;52.046;6.314;2023-08-30T07:04:29;16.33;;;13.57;;
10851;SDS011;5479;52.046;6.314;2023-08-30T07:06:57;15.80;;;13.53;;
10851;SDS011;5479;52.046;6.314;2023-08-30T07:09:26;15.50;;;13.90;;
10851;SDS011;5479;52.046;6.314;2023-08-30T07:11:56;15.20;;;13.60;;
10851;SDS011;5479;52.046;6.314;2023-08-30T07:14:24;14.67;;;13.20;;
10851;SDS011;5479;52.046;6.314;2023-08-30T07:16:52;16.07;;;14.43;;
10851;SDS011;5479;52.046;6.314;2023-08-30T07:19:20;15.80;;;13.60;;
10851;SDS011;5479;52.046;6.314;2023-08-30T07:21:48;15.30;;;12.93;;
10851;SDS011;5479;52.046;6.314;2023-08-30T07:24:16;15.23;;;13.70;;
10851;SDS011;5479;52.046;6.314;2023-08-30T07:26:45;15.67;;;14.07;;
10851;SDS011;5479;52.046;6.314;2023-08-30T07:29:13;15.97;;;13.90;;
10851;SDS011;5479;52.046;6.314;2023-08-30T07:31:41;15.70;;;13.90;;
10851;SDS011;5479;52.046;6.314;2023-08-30T07:34:09;15.93;;;14.10;;
10851;SDS011;5479;52.046;6.314;2023-08-30T07:36:37;16.67;;;13.33;;
10851;SDS011;5479;52.046;6.314;2023-08-30T07:39:04;15.60;;;13.67;;
10851;SDS011;5479;52.046;6.314;2023-08-30T07:41:33;13.87;;;12.37;;
10851;SDS011;5479;52.046;6.314;2023-08-30T07:44:03;15.30;;;13.70;;
10851;SDS011;5479;52.046;6.314;2023-08-30T07:46:31;15.07;;;13.47;;
10851;SDS011;5479;52.046;6.314;2023-08-30T07:48:59;15.20;;;13.47;;
10851;SDS011;5479;52.046;6.314;2023-08-30T07:51:27;16.87;;;14.27;;
10851;SDS011;5479;52.046;6.314;2023-08-30T07:53:55;15.93;;;14.10;;
10851;SDS011;5479;52.046;6.314;2023-08-30T07:56:22;17.17;;;13.93;;
10851;SDS011;5479;52.046;6.314;2023-08-30T07:58:50;16.67;;;15.00;;
10851;SDS011;5479;52.046;6.314;2023-08-30T08:01:20;15.93;;;14.20;;
10851;SDS011;5479;52.046;6.314;2023-08-30T08:03:47;16.83;;;14.47;;
10851;SDS011;5479;52.046;6.314;2023-08-30T08:06:15;17.13;;;15.33;;
10851;SDS011;5479;52.046;6.314;2023-08-30T08:08:43;18.43;;;14.60;;
10851;SDS011;5479;52.046;6.314;2023-08-30T08:11:11;17.63;;;14.90;;
10851;SDS011;5479;52.046;6.314;2023-08-30T08:13:39;18.70;;;13.80;;
10851;SDS011;5479;52.046;6.314;2023-08-30T08:16:08;17.23;;;15.30;;
10851;SDS011;5479;52.046;6.314;2023-08-30T08:18:38;17.60;;;15.23;;
10851;SDS011;5479;52.046;6.314;2023-08-30T08:21:05;19.63;;;15.73;;
10851;SDS011;5479;52.046;6.314;2023-08-30T08:23:33;20.00;;;16.23;;
10851;SDS011;5479;52.046;6.314;2023-08-30T08:26:01;18.47;;;16.47;;
10851;SDS011;5479;52.046;6.314;2023-08-30T08:28:31;20.40;;;16.67;;
10851;SDS011;5479;52.046;6.314;2023-08-30T08:30:58;18.23;;;16.03;;
10851;SDS011;5479;52.046;6.314;2023-08-30T08:33:26;20.63;;;16.67;;
10851;SDS011;5479;52.046;6.314;2023-08-30T08:35:56;18.70;;;16.70;;
10851;SDS011;5479;52.046;6.314;2023-08-30T08:38:24;19.40;;;16.97;;
10851;SDS011;5479;52.046;6.314;2023-08-30T08:40:53;20.77;;;17.63;;
10851;SDS011;5479;52.046;6.314;2023-08-30T08:43:29;22.27;;;18.20;;
10851;SDS011;5479;52.046;6.314;2023-08-30T08:46:00;21.07;;;17.50;;
10851;SDS011;5479;52.046;6.314;2023-08-30T08:48:28;20.60;;;17.37;;
10851;SDS011;5479;52.046;6.314;2023-08-30T08:50:58;21.47;;;17.80;;
10851;SDS011;5479;52.046;6.314;2023-08-30T08:53:27;21.53;;;18.20;;
10851;SDS011;5479;52.046;6.314;2023-08-30T08:55:56;21.73;;;18.83;;
10851;SDS011;5479;52.046;6.314;2023-08-30T08:58:26;23.27;;;18.97;;
10851;SDS011;5479;52.046;6.314;2023-08-30T09:00:56;23.90;;;19.03;;
10851;SDS011;5479;52.046;6.314;2023-08-30T09:03:24;22.63;;;18.13;;
10851;SDS011;5479;52.046;6.314;2023-08-30T09:05:54;22.80;;;20.07;;
10851;SDS011;5479;52.046;6.314;2023-08-30T09:08:24;23.47;;;19.70;;
10851;SDS011;5479;52.046;6.314;2023-08-30T09:10:52;23.33;;;19.30;;
10851;SDS011;5479;52.046;6.314;2023-08-30T09:13:20;22.83;;;18.27;;
10851;SDS011;5479;52.046;6.314;2023-08-30T09:15:49;21.87;;;19.33;;
10851;SDS011;5479;52.046;6.314;2023-08-30T09:18:17;25.87;;;20.73;;
10851;SDS011;5479;52.046;6.314;2023-08-30T09:20:45;24.00;;;20.57;;
10851;SDS011;5479;52.046;6.314;2023-08-30T09:23:17;23.37;;;19.93;;
10851;SDS011;5479;52.046;6.314;2023-08-30T09:25:53;24.27;;;21.30;;
10851;SDS011;5479;52.046;6.314;2023-08-30T09:28:24;26.27;;;20.97;;
10851;SDS011;5479;52.046;6.314;2023-08-30T09:30:53;23.93;;;21.30;;
10851;SDS011;5479;52.046;6.314;2023-08-30T09:33:21;24.63;;;21.07;;
10851;SDS011;5479;52.046;6.314;2023-08-30T09:35:50;24.97;;;21.70;;
10851;SDS011;5479;52.046;6.314;2023-08-30T09:38:19;22.80;;;20.33;;
10851;SDS011;5479;52.046;6.314;2023-08-30T09:40:49;23.73;;;21.10;;
10851;SDS011;5479;52.046;6.314;2023-08-30T09:43:18;24.20;;;21.70;;
10851;SDS011;5479;52.046;6.314;2023-08-30T09:45:51;26.50;;;23.70;;
10851;SDS011;5479;52.046;6.314;2023-08-30T09:48:20;25.23;;;22.57;;
10851;SDS011;5479;52.046;6.314;2023-08-30T09:50:51;23.70;;;21.20;;
10851;SDS011;5479;52.046;6.314;2023-08-30T09:53:24;23.90;;;20.57;;
10851;SDS011;5479;52.046;6.314;2023-08-30T09:55:55;21.50;;;19.10;;
10851;SDS011;5479;52.046;6.314;2023-08-30T09:58:26;19.63;;;17.53;;
10851;SDS011;5479;52.046;6.314;2023-08-30T10:00:56;19.80;;;17.43;;
10851;SDS011;5479;52.046;6.314;2023-08-30T10:03:27;20.40;;;17.97;;
10851;SDS011;5479;52.046;6.314;2023-08-30T10:05:56;19.27;;;16.67;;
10851;SDS011;5479;52.046;6.314;2023-08-30T10:08:27;20.57;;;17.10;;
10851;SDS011;5479;52.046;6.314;2023-08-30T10:10:59;19.03;;;17.00;;
10851;SDS011;5479;52.046;6.314;2023-08-30T10:13:28;17.43;;;15.53;;
10851;SDS011;5479;52.046;6.314;2023-08-30T10:15:59;18.27;;;14.53;;
10851;SDS011;5479;52.046;6.314;2023-08-30T10:18:28;16.63;;;14.47;;
10851;SDS011;5479;52.046;6.314;2023-08-30T10:20:59;16.10;;;14.40;;
10851;SDS011;5479;52.046;6.314;2023-08-30T10:23:27;16.30;;;13.83;;
10851;SDS011;5479;52.046;6.314;2023-08-30T10:25:58;14.63;;;12.97;;
10851;SDS011;5479;52.046;6.314;2023-08-30T10:28:30;13.53;;;12.13;;
10851;SDS011;5479;52.046;6.314;2023-08-30T10:31:00;14.03;;;12.47;;
10851;SDS011;5479;52.046;6.314;2023-08-30T10:33:29;13.80;;;12.30;;
10851;SDS011;5479;52.046;6.314;2023-08-30T10:36:04;12.80;;;11.50;;
10851;SDS011;5479;52.046;6.314;2023-08-30T10:38:33;13.70;;;11.97;;
10851;SDS011;5479;52.046;6.314;2023-08-30T10:41:07;12.70;;;11.40;;
10851;SDS011;5479;52.046;6.314;2023-08-30T10:43:36;12.97;;;11.27;;
10851;SDS011;5479;52.046;6.314;2023-08-30T10:46:05;11.63;;;9.63;;
10851;SDS011;5479;52.046;6.314;2023-08-30T10:48:34;10.50;;;9.10;;
10851;SDS011;5479;52.046;6.314;2023-08-30T10:51:04;10.93;;;9.47;;
10851;SDS011;5479;52.046;6.314;2023-08-30T10:53:33;10.90;;;9.23;;
10851;SDS011;5479;52.046;6.314;2023-08-30T10:56:12;10.80;;;9.70;;
10851;SDS011;5479;52.046;6.314;2023-08-30T10:58:40;10.90;;;9.70;;
10851;SDS011;5479;52.046;6.314;2023-08-30T11:01:12;11.30;;;9.90;;
10851;SDS011;5479;52.046;6.314;2023-08-30T11:03:42;11.57;;;10.30;;
10851;SDS011;5479;52.046;6.314;2023-08-30T11:06:13;11.50;;;9.73;;
10851;SDS011;5479;52.046;6.314;2023-08-30T11:08:43;11.00;;;9.80;;
10851;SDS011;5479;52.046;6.314;2023-08-30T11:11:19;10.20;;;8.60;;
10851;SDS011;5479;52.046;6.314;2023-08-30T11:13:47;10.53;;;9.43;;
10851;SDS011;5479;52.046;6.314;2023-08-30T11:16:20;10.07;;;9.07;;
10851;SDS011;5479;52.046;6.314;2023-08-30T11:18:49;9.60;;;8.60;;
10851;SDS011;5479;52.046;6.314;2023-08-30T11:21:16;10.57;;;9.40;;
10851;SDS011;5479;52.046;6.314;2023-08-30T11:23:45;9.63;;;8.63;;
10851;SDS011;5479;52.046;6.314;2023-08-30T11:26:13;9.47;;;8.57;;
10851;SDS011;5479;52.046;6.314;2023-08-30T11:29:05;8.87;;;7.63;;
10851;SDS011;5479;52.046;6.314;2023-08-30T11:31:34;9.00;;;8.10;;
10851;SDS011;5479;52.046;6.314;2023-08-30T11:34:02;10.87;;;8.63;;
10851;SDS011;5479;52.046;6.314;2023-08-30T11:36:31;10.23;;;8.93;;
10851;SDS011;5479;52.046;6.314;2023-08-30T11:39:04;9.43;;;8.52;;
10851;SDS011;5479;52.046;6.314;2023-08-30T11:41:33;9.82;;;8.52;;
10851;SDS011;5479;52.046;6.314;2023-08-30T11:44:01;9.73;;;8.52;;
10851;SDS011;5479;52.046;6.314;2023-08-30T11:46:31;9.40;;;8.40;;
10851;SDS011;5479;52.046;6.314;2023-08-30T11:48:59;11.57;;;8.20;;
10851;SDS011;5479;52.046;6.314;2023-08-30T11:51:27;9.38;;;8.35;;
10851;SDS011;5479;52.046;6.314;2023-08-30T11:53:56;9.45;;;8.45;;
10851;SDS011;5479;52.046;6.314;2023-08-30T11:56:25;10.50;;;9.40;;
10851;SDS011;5479;52.046;6.314;2023-08-30T11:58:53;11.23;;;9.70;;
10851;SDS011;5479;52.046;6.314;2023-08-30T12:01:21;11.48;;;10.38;;
10851;SDS011;5479;52.046;6.314;2023-08-30T12:03:52;13.90;;;11.70;;
10851;SDS011;5479;52.046;6.314;2023-08-30T12:06:22;13.33;;;11.83;;
10851;SDS011;5479;52.046;6.314;2023-08-30T12:08:57;13.83;;;12.47;;
10851;SDS011;5479;52.046;6.314;2023-08-30T12:11:25;14.97;;;13.57;;
10851;SDS011;5479;52.046;6.314;2023-08-30T12:14:01;14.27;;;12.87;;
10851;SDS011;5479;52.046;6.314;2023-08-30T12:16:29;14.93;;;13.47;;
10851;SDS011;5479;52.046;6.314;2023-08-30T12:19:08;14.47;;;13.10;;
10851;SDS011;5479;52.046;6.314;2023-08-30T12:21:40;14.53;;;13.13;;
10851;SDS011;5479;52.046;6.314;2023-08-30T12:24:10;14.70;;;13.30;;
10851;SDS011;5479;52.046;6.314;2023-08-30T12:26:38;13.48;;;12.07;;
10851;SDS011;5479;52.046;6.314;2023-08-30T12:29:06;13.05;;;11.85;;
10851;SDS011;5479;52.046;6.314;2023-08-30T12:31:34;12.75;;;11.55;;
10851;SDS011;5479;52.046;6.314;2023-08-30T12:34:02;12.38;;;11.07;;
10851;SDS011;5479;52.046;6.314;2023-08-30T12:36:31;11.05;;;9.95;;
10851;SDS011;5479;52.046;6.314;2023-08-30T12:39:01;12.02;;;10.82;;
10851;SDS011;5479;52.046;6.314;2023-08-30T12:41:30;9.77;;;8.80;;
10851;SDS011;5479;52.046;6.314;2023-08-30T12:43:59;8.57;;;7.55;;
10851;SDS011;5479;52.046;6.314;2023-08-30T12:46:27;8.23;;;7.20;;
10851;SDS011;5479;52.046;6.314;2023-08-30T12:48:55;9.02;;;7.28;;
10851;SDS011;5479;52.046;6.314;2023-08-30T12:51:26;9.02;;;6.30;;
10851;SDS011;5479;52.046;6.314;2023-08-30T12:53:55;9.02;;;6.50;;
10851;SDS011;5479;52.046;6.314;2023-08-30T12:56:23;7.55;;;6.05;;
10851;SDS011;5479;52.046;6.314;2023-08-30T12:58:52;8.80;;;6.10;;
10851;SDS011;5479;52.046;6.314;2023-08-30T13:01:22;7.45;;;5.78;;
10851;SDS011;5479;52.046;6.314;2023-08-30T13:03:53;9.30;;;5.43;;
10851;SDS011;5479;52.046;6.314;2023-08-30T13:06:23;9.48;;;5.80;;
10851;SDS011;5479;52.046;6.314;2023-08-30T13:08:51;8.05;;;5.53;;
10851;SDS011;5479;52.046;6.314;2023-08-30T13:11:23;9.45;;;5.53;;
10851;SDS011;5479;52.046;6.314;2023-08-30T13:13:52;7.68;;;4.68;;
10851;SDS011;5479;52.046;6.314;2023-08-30T13:16:25;8.27;;;4.97;;
10851;SDS011;5479;52.046;6.314;2023-08-30T13:18:53;7.68;;;4.03;;
10851;SDS011;5479;52.046;6.314;2023-08-30T13:21:23;7.60;;;4.18;;
10851;SDS011;5479;52.046;6.314;2023-08-30T13:23:52;8.13;;;4.20;;
10851;SDS011;5479;52.046;6.314;2023-08-30T13:26:20;7.65;;;3.88;;
10851;SDS011;5479;52.046;6.314;2023-08-30T13:28:52;6.82;;;3.92;;
10851;SDS011;5479;52.046;6.314;2023-08-30T13:31:20;7.82;;;3.83;;
10851;SDS011;5479;52.046;6.314;2023-08-30T13:33:48;7.10;;;3.20;;
10851;SDS011;5479;52.046;6.314;2023-08-30T13:36:16;6.85;;;3.72;;
10851;SDS011;5479;52.046;6.314;2023-08-30T13:38:44;8.18;;;4.00;;
10851;SDS011;5479;52.046;6.314;2023-08-30T13:41:12;8.70;;;4.30;;
10851;SDS011;5479;52.046;6.314;2023-08-30T13:43:40;7.30;;;3.60;;
10851;SDS011;5479;52.046;6.314;2023-08-30T13:46:09;9.02;;;4.20;;
10851;SDS011;5479;52.046;6.314;2023-08-30T13:48:37;9.25;;;4.00;;
10851;SDS011;5479;52.046;6.314;2023-08-30T13:51:05;7.55;;;3.10;;
10851;SDS011;5479;52.046;6.314;2023-08-30T13:53:35;7.38;;;3.38;;
10851;SDS011;5479;52.046;6.314;2023-08-30T13:56:03;7.05;;;3.10;;
10851;SDS011;5479;52.046;6.314;2023-08-30T13:58:34;7.43;;;2.83;;
10851;SDS011;5479;52.046;6.314;2023-08-30T14:01:03;10.23;;;3.22;;
10851;SDS011;5479;52.046;6.314;2023-08-30T14:03:32;7.22;;;3.10;;
10851;SDS011;5479;52.046;6.314;2023-08-30T14:06:02;7.38;;;2.78;;
10851;SDS011;5479;52.046;6.314;2023-08-30T14:08:30;7.05;;;2.85;;
10851;SDS011;5479;52.046;6.314;2023-08-30T14:10:58;7.88;;;3.03;;
10851;SDS011;5479;52.046;6.314;2023-08-30T14:13:26;8.77;;;3.28;;
10851;SDS011;5479;52.046;6.314;2023-08-30T14:15:58;6.38;;;3.05;;
10851;SDS011;5479;52.046;6.314;2023-08-30T14:18:27;7.30;;;3.38;;
10851;SDS011;5479;52.046;6.314;2023-08-30T14:20:56;7.45;;;3.17;;
10851;SDS011;5479;52.046;6.314;2023-08-30T14:23:25;8.10;;;3.20;;
10851;SDS011;5479;52.046;6.314;2023-08-30T14:25:57;7.82;;;3.08;;
10851;SDS011;5479;52.046;6.314;2023-08-30T14:28:25;8.77;;;3.25;;
10851;SDS011;5479;52.046;6.314;2023-08-30T14:30:53;8.40;;;2.92;;
10851;SDS011;5479;52.046;6.314;2023-08-30T14:33:22;7.43;;;3.30;;
10851;SDS011;5479;52.046;6.314;2023-08-30T14:35:50;8.10;;;3.25;;
10851;SDS011;5479;52.046;6.314;2023-08-30T14:38:19;9.15;;;3.20;;
10851;SDS011;5479;52.046;6.314;2023-08-30T14:40:53;6.70;;;3.15;;
10851;SDS011;5479;52.046;6.314;2023-08-30T14:43:22;7.13;;;2.78;;
10851;SDS011;5479;52.046;6.314;2023-08-30T14:45:50;8.38;;;3.38;;
10851;SDS011;5479;52.046;6.314;2023-08-30T14:48:18;8.25;;;2.60;;
10851;SDS011;5479;52.046;6.314;2023-08-30T14:50:49;7.13;;;2.97;;